Time;durP1;ratioP1;P1;durP2;ratioP2;P2;SDS_P1;SDS_P2;PMS_P1;PMS_P2;Temp;Humidity;BMP_temperature;BMP_pressure;BME280_temperature;BME280_humidity;BME280_pressure;Samples;Min_cycle;Max_cycle;Signal;HPM_P1;HPM_P2
2023/12/30 00:01:15;;;;;;;141.38;75.07;;;5.90;99.90;;;;;;4998987;28;20037;-84
2023/12/30 00:03:41;;;;;;;141.40;76.30;;;6.00;99.90;;;;;;4998774;28;20033;-83
2023/12/30 00:06:08;;;;;;;135.70;72.32;;;6.00;99.90;;;;;;5016356;28;20028;-83
2023/12/30 00:08:35;;;;;;;155.35;73.43;;;6.10;99.90;;;;;;4998367;28;20033;-82
2023/12/30 00:11:01;;;;;;;160.43;74.25;;;6.20;99.90;;;;;;4998215;28;20508;-82
2023/12/30 00:13:27;;;;;;;155.45;76.47;;;6.30;99.90;;;;;;4998099;28;20439;-82
2023/12/30 00:15:53;;;;;;;153.55;74.00;;;6.40;99.90;;;;;;4978433;28;20037;-82
2023/12/30 00:18:20;;;;;;;161.43;72.72;;;6.40;99.90;;;;;;4995128;28;20026;-82
2023/12/30 00:20:48;;;;;;;147.80;71.18;;;6.50;99.90;;;;;;4962681;28;20026;-83
2023/12/30 00:23:17;;;;;;;147.27;69.60;;;6.60;99.90;;;;;;4948509;29;20055;-83
2023/12/30 00:25:44;;;;;;;134.68;65.53;;;6.60;99.90;;;;;;4942231;28;20023;-82
2023/12/30 00:28:11;;;;;;;134.85;66.45;;;6.60;99.90;;;;;;4959071;28;20062;-82
2023/12/30 00:30:38;;;;;;;133.57;67.53;;;6.60;99.90;;;;;;4959133;28;20031;-81
2023/12/30 00:33:05;;;;;;;138.18;66.95;;;6.50;99.90;;;;;;4974617;28;20061;-81
2023/12/30 00:35:33;;;;;;;134.45;67.78;;;6.20;99.90;;;;;;4974945;28;20510;-81
2023/12/30 00:38:00;;;;;;;141.75;67.20;;;6.10;99.90;;;;;;4974518;28;20034;-81
2023/12/30 00:40:27;;;;;;;144.23;65.60;;;6.00;99.90;;;;;;4975181;28;20085;-81
2023/12/30 00:42:53;;;;;;;140.63;68.30;;;5.90;99.90;;;;;;4974349;28;20259;-81
2023/12/30 00:45:19;;;;;;;134.77;68.20;;;5.80;99.90;;;;;;4991210;28;20034;-80
2023/12/30 00:47:47;;;;;;;151.02;72.75;;;5.70;99.90;;;;;;4974210;28;20122;-81
2023/12/30 00:50:13;;;;;;;129.07;64.88;;;5.60;99.90;;;;;;4990678;28;20115;-81
2023/12/30 00:52:39;;;;;;;139.20;70.60;;;5.60;99.90;;;;;;4958380;28;20019;-81
2023/12/30 00:55:07;;;;;;;136.82;68.35;;;5.50;99.90;;;;;;4974864;28;20061;-82
2023/12/30 00:57:33;;;;;;;139.30;69.68;;;5.50;99.90;;;;;;4974729;28;20038;-82
2023/12/30 01:00:03;;;;;;;135.82;69.72;;;5.40;99.90;;;;;;4958872;28;20112;-81
2023/12/30 01:02:29;;;;;;;138.00;68.68;;;5.30;99.90;;;;;;4956670;28;20062;-81
2023/12/30 01:04:56;;;;;;;142.80;67.35;;;5.30;99.90;;;;;;4973857;28;20435;-82
2023/12/30 01:07:23;;;;;;;139.73;70.75;;;5.30;99.90;;;;;;4958866;28;20030;-80
2023/12/30 01:09:49;;;;;;;144.15;73.05;;;5.20;99.90;;;;;;4958704;28;20035;-82
2023/12/30 01:12:15;;;;;;;141.60;70.30;;;5.20;99.90;;;;;;4958856;28;20046;-81
2023/12/30 01:14:42;;;;;;;142.05;72.65;;;5.20;99.90;;;;;;4974415;28;20035;-82
2023/12/30 01:17:08;;;;;;;142.27;72.78;;;5.20;99.90;;;;;;4958600;28;20038;-82
2023/12/30 01:19:34;;;;;;;142.48;72.43;;;5.20;99.90;;;;;;4974735;28;20047;-82
2023/12/30 01:22:01;;;;;;;139.50;68.47;;;5.20;99.90;;;;;;4976249;28;20033;-82
2023/12/30 01:24:28;;;;;;;128.90;68.03;;;5.10;99.90;;;;;;4997218;28;20057;-82
2023/12/30 01:26:54;;;;;;;143.63;71.20;;;5.20;99.90;;;;;;4987672;28;20038;-82
2023/12/30 01:29:20;;;;;;;135.18;68.20;;;5.20;99.90;;;;;;4993895;28;20077;-82
2023/12/30 01:31:47;;;;;;;125.80;65.75;;;5.10;99.90;;;;;;4993869;28;20027;-82
2023/12/30 01:34:13;;;;;;;129.52;66.30;;;5.20;99.90;;;;;;4993591;28;20065;-82
2023/12/30 01:36:40;;;;;;;128.43;70.50;;;5.10;99.90;;;;;;5001431;28;20022;-83
2023/12/30 01:39:06;;;;;;;132.60;66.53;;;5.10;99.90;;;;;;4997042;28;20095;-82
2023/12/30 01:41:33;;;;;;;132.18;67.45;;;5.10;99.90;;;;;;5013074;28;20022;-81
2023/12/30 01:44:00;;;;;;;117.95;64.43;;;5.10;99.90;;;;;;4996773;28;20033;-82
2023/12/30 01:46:27;;;;;;;125.20;66.72;;;5.10;99.90;;;;;;5012752;28;20386;-82
2023/12/30 01:48:54;;;;;;;121.40;65.30;;;5.00;99.90;;;;;;4996728;28;20117;-82
2023/12/30 01:51:21;;;;;;;131.10;66.50;;;5.10;99.90;;;;;;5012958;28;20168;-82
2023/12/30 01:53:47;;;;;;;120.03;62.75;;;5.10;99.90;;;;;;4993167;28;20116;-82
2023/12/30 01:56:17;;;;;;;120.75;63.20;;;5.00;99.90;;;;;;4980809;28;20034;-82
2023/12/30 01:58:44;;;;;;;122.72;63.88;;;5.00;99.90;;;;;;4996781;28;20426;-82
2023/12/30 02:01:11;;;;;;;121.05;64.10;;;5.00;99.90;;;;;;5012098;28;20108;-82
2023/12/30 02:03:39;;;;;;;126.78;64.60;;;5.00;99.90;;;;;;5012906;28;20049;-82
2023/12/30 02:06:06;;;;;;;131.63;63.78;;;5.00;99.90;;;;;;4978261;28;20022;-82
2023/12/30 02:08:32;;;;;;;122.53;62.03;;;5.00;99.90;;;;;;4977036;28;20483;-82
2023/12/30 02:11:03;;;;;;;121.20;63.30;;;4.90;99.90;;;;;;4993155;28;20431;-82
2023/12/30 02:13:30;;;;;;;115.53;60.55;;;4.90;99.90;;;;;;5001682;28;20030;-82
2023/12/30 02:15:56;;;;;;;118.55;60.80;;;5.00;99.90;;;;;;4996175;28;20014;-81
2023/12/30 02:18:24;;;;;;;111.07;59.25;;;4.90;99.90;;;;;;4996416;28;20509;-82
2023/12/30 02:20:50;;;;;;;117.13;59.83;;;4.90;99.90;;;;;;5012666;28;20068;-82
2023/12/30 02:23:16;;;;;;;109.45;60.00;;;4.90;99.90;;;;;;4992431;28;20045;-81
2023/12/30 02:25:44;;;;;;;105.75;56.28;;;4.90;99.90;;;;;;4976848;28;20045;-82
2023/12/30 02:28:11;;;;;;;102.53;55.45;;;5.00;99.90;;;;;;4993051;28;20030;-82
2023/12/30 02:30:37;;;;;;;112.13;58.13;;;4.90;99.90;;;;;;4976770;28;20080;-81
2023/12/30 02:33:03;;;;;;;108.53;56.10;;;4.90;99.90;;;;;;4978301;28;20030;-81
2023/12/30 02:35:31;;;;;;;102.38;54.40;;;4.90;99.90;;;;;;4993119;28;20076;-82
2023/12/30 02:38:00;;;;;;;102.32;52.08;;;4.90;99.90;;;;;;4976610;28;20117;-82
2023/12/30 02:40:27;;;;;;;96.22;51.03;;;4.80;99.90;;;;;;4973500;28;20459;-82
2023/12/30 02:42:53;;;;;;;98.88;50.92;;;4.80;99.90;;;;;;4992691;28;20041;-82
2023/12/30 02:45:19;;;;;;;89.53;48.92;;;4.90;99.90;;;;;;4976633;28;20492;-81
2023/12/30 02:47:46;;;;;;;93.75;49.97;;;4.80;99.90;;;;;;4992820;28;20403;-82
2023/12/30 02:50:12;;;;;;;103.30;51.53;;;4.90;99.90;;;;;;4992763;28;20019;-82
2023/12/30 02:52:39;;;;;;;86.15;48.85;;;4.80;99.90;;;;;;4992864;28;20377;-82
2023/12/30 02:55:06;;;;;;;88.15;48.30;;;4.90;99.90;;;;;;4992706;28;20030;-82
2023/12/30 02:57:32;;;;;;;92.22;48.47;;;4.90;99.90;;;;;;4985398;28;20065;-82
2023/12/30 02:59:59;;;;;;;86.53;47.22;;;4.90;99.90;;;;;;4992867;28;20026;-82
2023/12/30 03:02:26;;;;;;;93.93;47.65;;;4.90;99.90;;;;;;4992729;28;20499;-81
2023/12/30 03:04:57;;;;;;;93.82;48.25;;;5.00;99.90;;;;;;4977042;28;20026;-82
2023/12/30 03:07:23;;;;;;;93.05;49.65;;;5.00;99.90;;;;;;4992415;28;20034;-82
2023/12/30 03:09:49;;;;;;;101.97;50.72;;;5.00;99.90;;;;;;4991609;28;20492;-82
2023/12/30 03:12:16;;;;;;;96.78;51.13;;;4.90;99.90;;;;;;4976133;28;20054;-81
2023/12/30 03:14:44;;;;;;;101.55;48.65;;;4.90;99.90;;;;;;5010798;28;20043;-82
2023/12/30 03:17:11;;;;;;;97.97;50.92;;;4.90;99.90;;;;;;4980307;28;20031;-82
2023/12/30 03:19:37;;;;;;;101.32;51.83;;;4.90;99.90;;;;;;4996601;28;20073;-82
2023/12/30 03:22:03;;;;;;;100.40;50.97;;;4.90;99.90;;;;;;4997240;28;20042;-80
2023/12/30 03:24:31;;;;;;;95.95;48.20;;;4.90;99.90;;;;;;4999668;28;20042;-82
2023/12/30 03:26:57;;;;;;;94.95;48.17;;;5.00;99.90;;;;;;4983218;28;20064;-82
2023/12/30 03:29:30;;;;;;;98.78;48.92;;;5.00;99.90;;;;;;4999527;28;20088;-82
2023/12/30 03:31:57;;;;;;;99.57;49.58;;;5.00;99.90;;;;;;4998907;28;20048;-82
2023/12/30 03:34:23;;;;;;;91.10;49.67;;;5.00;99.90;;;;;;4998383;28;20577;-82
2023/12/30 03:36:50;;;;;;;99.65;53.72;;;5.00;99.90;;;;;;4982019;28;20540;-81
2023/12/30 03:39:17;;;;;;;101.75;51.83;;;5.00;99.90;;;;;;5015164;28;20026;-82
2023/12/30 03:41:46;;;;;;;92.32;49.58;;;5.00;99.90;;;;;;4999247;28;20410;-82
2023/12/30 03:44:13;;;;;;;93.72;52.10;;;5.00;99.90;;;;;;5015412;28;20022;-82
2023/12/30 03:46:41;;;;;;;89.40;47.92;;;5.10;99.90;;;;;;5012163;28;20033;-81
2023/12/30 03:49:08;;;;;;;96.03;50.67;;;5.00;99.90;;;;;;4995236;28;20396;-82
2023/12/30 03:51:35;;;;;;;100.18;49.67;;;5.00;99.90;;;;;;4995013;28;20587;-84
2023/12/30 03:54:03;;;;;;;94.88;49.25;;;5.00;99.90;;;;;;5006828;28;20040;-82
2023/12/30 03:56:32;;;;;;;96.78;51.88;;;4.90;99.90;;;;;;4996564;28;20430;-82
2023/12/30 03:58:59;;;;;;;97.47;51.17;;;4.90;99.90;;;;;;4995121;28;20030;-82
2023/12/30 04:01:26;;;;;;;99.72;49.03;;;5.00;99.90;;;;;;4995024;28;20038;-81
2023/12/30 04:03:56;;;;;;;98.03;49.75;;;5.00;99.90;;;;;;4995338;28;20026;-84
2023/12/30 04:06:22;;;;;;;98.30;50.33;;;5.00;99.90;;;;;;4999240;28;20054;-83
2023/12/30 04:08:48;;;;;;;104.22;50.30;;;5.10;99.90;;;;;;4982620;28;20053;-84
2023/12/30 04:11:15;;;;;;;94.55;50.28;;;5.10;99.90;;;;;;4998636;28;20532;-83
2023/12/30 04:13:41;;;;;;;99.28;49.53;;;5.10;99.90;;;;;;4998305;28;20030;-83
2023/12/30 04:16:08;;;;;;;91.10;47.80;;;5.10;99.90;;;;;;4998036;28;20022;-83
2023/12/30 04:18:38;;;;;;;90.88;48.90;;;5.10;99.90;;;;;;5014497;28;20034;-83
2023/12/30 04:21:05;;;;;;;93.05;46.88;;;5.10;99.90;;;;;;4998434;28;20121;-83
2023/12/30 04:23:31;;;;;;;89.50;47.38;;;5.10;99.90;;;;;;5010554;28;20177;-83
2023/12/30 04:25:58;;;;;;;91.57;45.70;;;5.10;99.90;;;;;;4995160;28;20030;-84
2023/12/30 04:28:24;;;;;;;94.03;43.92;;;5.20;99.90;;;;;;4978929;28;20125;-83
2023/12/30 04:30:51;;;;;;;84.03;43.53;;;5.30;99.90;;;;;;4978944;28;20061;-83
2023/12/30 04:33:17;;;;;;;88.40;43.60;;;5.40;99.90;;;;;;4995086;28;20038;-84
2023/12/30 04:35:44;;;;;;;76.90;40.67;;;5.40;99.90;;;;;;4995226;28;20125;-83
2023/12/30 04:38:10;;;;;;;72.50;36.78;;;5.50;99.90;;;;;;4978889;28;20085;-84
2023/12/30 04:40:37;;;;;;;59.28;32.38;;;5.60;99.90;;;;;;4979047;28;20030;-83
2023/12/30 04:43:03;;;;;;;58.35;30.95;;;5.70;99.90;;;;;;4978251;28;20137;-82
2023/12/30 04:45:30;;;;;;;52.20;29.98;;;5.90;99.90;;;;;;4974899;28;20027;-82
2023/12/30 04:47:56;;;;;;;48.30;29.52;;;6.00;99.90;;;;;;4975022;28;20042;-82
2023/12/30 04:50:23;;;;;;;62.55;31.88;;;6.10;99.90;;;;;;4974878;28;20027;-82
2023/12/30 04:52:51;;;;;;;56.08;32.30;;;6.20;99.90;;;;;;4958585;28;20023;-82
2023/12/30 04:55:18;;;;;;;63.72;33.65;;;6.20;99.90;;;;;;4978687;28;20018;-82
2023/12/30 04:57:47;;;;;;;63.08;35.40;;;6.20;99.90;;;;;;4994321;28;20101;-82
2023/12/30 05:00:16;;;;;;;65.25;34.80;;;6.10;99.90;;;;;;4995176;28;20030;-81
2023/12/30 05:02:45;;;;;;;66.32;36.92;;;5.90;99.90;;;;;;4993784;28;20042;-82
2023/12/30 05:05:12;;;;;;;57.13;35.08;;;5.80;99.90;;;;;;4978658;28;20033;-82
2023/12/30 05:07:38;;;;;;;58.75;32.65;;;5.80;99.90;;;;;;4994221;28;20049;-83
2023/12/30 05:10:05;;;;;;;64.55;34.25;;;5.80;99.90;;;;;;4994123;28;20061;-83
2023/12/30 05:12:32;;;;;;;68.65;36.00;;;5.70;99.90;;;;;;4993537;28;20117;-82
2023/12/30 05:14:58;;;;;;;69.05;36.97;;;5.70;99.90;;;;;;4992824;28;20058;-82
2023/12/30 05:17:25;;;;;;;80.68;41.47;;;5.70;99.90;;;;;;4990167;28;20033;-81
2023/12/30 05:19:52;;;;;;;85.53;47.38;;;5.60;99.90;;;;;;4990140;28;20069;-82
2023/12/30 05:22:18;;;;;;;89.63;46.60;;;5.50;99.90;;;;;;4992891;28;20046;-82
2023/12/30 05:24:44;;;;;;;92.18;48.85;;;5.40;99.90;;;;;;5012845;28;20109;-82
2023/12/30 05:27:11;;;;;;;97.47;49.90;;;5.30;99.90;;;;;;4994598;28;20037;-81
2023/12/30 05:29:37;;;;;;;95.88;51.63;;;5.30;99.90;;;;;;4993719;28;20026;-83
2023/12/30 05:32:04;;;;;;;97.25;54.05;;;5.20;99.90;;;;;;4993296;28;20092;-82
2023/12/30 05:34:30;;;;;;;89.50;51.78;;;5.20;99.90;;;;;;4989572;28;20030;-82
2023/12/30 05:37:00;;;;;;;101.80;54.03;;;5.20;99.90;;;;;;4980092;28;20377;-82
2023/12/30 05:39:26;;;;;;;112.25;59.30;;;5.10;99.90;;;;;;4980391;28;20030;-82
2023/12/30 05:41:52;;;;;;;100.22;57.63;;;5.10;99.90;;;;;;4996124;28;20049;-82
2023/12/30 05:44:19;;;;;;;110.95;56.17;;;5.00;99.90;;;;;;4979883;28;20026;-81
2023/12/30 05:46:45;;;;;;;110.93;56.00;;;5.00;99.90;;;;;;5013768;28;20026;-81
2023/12/30 05:49:12;;;;;;;102.03;55.95;;;5.00;99.90;;;;;;4979940;28;20132;-81
2023/12/30 05:51:42;;;;;;;111.65;57.47;;;5.00;99.90;;;;;;4996225;28;20021;-81
2023/12/30 05:54:10;;;;;;;111.30;57.13;;;4.90;99.90;;;;;;4982817;28;20041;-81
2023/12/30 05:56:37;;;;;;;101.07;56.70;;;4.90;99.90;;;;;;4976438;28;20065;-82
2023/12/30 05:59:03;;;;;;;105.68;56.67;;;4.90;99.90;;;;;;4980632;28;20034;-81
2023/12/30 06:01:30;;;;;;;99.13;54.58;;;4.80;99.90;;;;;;4995895;28;20144;-81
2023/12/30 06:03:58;;;;;;;95.32;54.17;;;4.80;99.90;;;;;;4995817;28;20036;-81
2023/12/30 06:06:25;;;;;;;105.63;54.92;;;4.80;99.90;;;;;;4995904;28;20025;-82
2023/12/30 06:08:51;;;;;;;100.15;55.10;;;4.80;99.90;;;;;;4996010;28;20112;-82
2023/12/30 06:11:17;;;;;;;96.65;56.08;;;4.80;99.90;;;;;;4996045;28;20049;-81
2023/12/30 06:13:44;;;;;;;103.15;57.03;;;4.80;99.90;;;;;;5009379;28;20040;-81
2023/12/30 06:16:11;;;;;;;105.35;55.22;;;4.80;99.90;;;;;;4979403;28;20026;-81
2023/12/30 06:18:38;;;;;;;103.70;55.67;;;4.80;99.90;;;;;;4995994;28;20034;-81
2023/12/30 06:21:04;;;;;;;97.03;53.80;;;4.80;99.90;;;;;;5013311;28;20026;-82
2023/12/30 06:23:32;;;;;;;98.78;52.75;;;4.80;99.90;;;;;;4987268;28;20549;-81
2023/12/30 06:26:01;;;;;;;97.32;53.20;;;4.80;99.90;;;;;;4976171;28;20034;-82
2023/12/30 06:28:28;;;;;;;96.72;52.83;;;4.90;99.90;;;;;;4976209;28;20038;-82
2023/12/30 06:30:57;;;;;;;100.25;55.80;;;4.90;99.90;;;;;;4993800;28;20030;-81
2023/12/30 06:33:24;;;;;;;91.30;51.13;;;4.80;99.90;;;;;;4972921;28;20260;-82
2023/12/30 06:35:50;;;;;;;97.20;53.13;;;4.80;99.90;;;;;;4988913;28;20043;-82
2023/12/30 06:38:20;;;;;;;98.65;53.78;;;4.90;99.90;;;;;;4988975;28;20031;-82
2023/12/30 06:40:47;;;;;;;96.45;52.40;;;4.90;99.90;;;;;;4956768;28;20031;-81
2023/12/30 06:43:14;;;;;;;88.70;47.67;;;5.00;99.90;;;;;;4958905;28;20046;-81
2023/12/30 06:45:40;;;;;;;88.40;48.42;;;5.00;99.90;;;;;;4977239;28;20053;-81
2023/12/30 06:48:07;;;;;;;88.25;48.80;;;5.10;99.90;;;;;;4982614;28;20147;-81
2023/12/30 06:50:33;;;;;;;87.72;48.30;;;5.20;99.90;;;;;;4998803;28;20094;-81
2023/12/30 06:52:59;;;;;;;83.50;47.95;;;5.30;99.90;;;;;;4981952;28;20037;-81
2023/12/30 06:55:26;;;;;;;83.28;47.53;;;5.40;99.90;;;;;;4974950;28;20023;-81
2023/12/30 06:57:53;;;;;;;89.38;48.67;;;5.50;99.90;;;;;;4959930;28;20034;-82
2023/12/30 07:00:20;;;;;;;81.68;47.08;;;5.70;99.90;;;;;;4943725;28;20366;-82
2023/12/30 07:02:46;;;;;;;82.45;44.90;;;5.90;99.90;;;;;;4959675;28;20040;-81
2023/12/30 07:05:15;;;;;;;82.03;42.85;;;6.20;99.90;;;;;;4977106;28;20031;-82
2023/12/30 07:07:42;;;;;;;78.10;42.03;;;6.50;99.90;;;;;;4978724;28;20537;-82
2023/12/30 07:10:15;;;;;;;80.47;41.47;;;6.70;99.90;;;;;;4978798;28;20082;-82
2023/12/30 07:12:41;;;;;;;76.72;42.15;;;7.00;99.90;;;;;;4960518;28;20477;-82
2023/12/30 07:15:09;;;;;;;77.25;45.58;;;7.10;99.90;;;;;;4994728;28;20524;-82
2023/12/30 07:17:35;;;;;;;78.15;46.65;;;7.20;99.90;;;;;;4985991;28;20031;-82
2023/12/30 07:20:02;;;;;;;75.72;48.17;;;7.20;99.90;;;;;;4943679;29;20124;-82
2023/12/30 07:22:28;;;;;;;89.22;53.25;;;7.20;99.90;;;;;;4947489;28;20058;-82
2023/12/30 07:24:55;;;;;;;85.55;52.47;;;7.30;99.90;;;;;;4990165;28;20061;-82
2023/12/30 07:27:21;;;;;;;87.93;54.97;;;7.50;99.90;;;;;;4992224;28;20034;-81
2023/12/30 07:29:48;;;;;;;92.38;54.03;;;7.70;99.90;;;;;;4980343;28;20094;-81
2023/12/30 07:32:14;;;;;;;87.50;52.00;;;7.90;99.90;;;;;;4962978;28;20043;-82
2023/12/30 07:34:40;;;;;;;88.35;51.25;;;8.20;99.90;;;;;;4985873;28;20111;-81
2023/12/30 07:37:07;;;;;;;88.80;54.28;;;8.50;99.90;;;;;;4995532;28;20134;-82
2023/12/30 07:39:33;;;;;;;83.40;55.33;;;8.70;99.90;;;;;;4962964;28;20476;-82
2023/12/30 07:42:00;;;;;;;88.95;57.70;;;9.00;99.90;;;;;;4962874;28;20043;-81
2023/12/30 07:44:29;;;;;;;84.80;56.47;;;9.10;99.90;;;;;;4998485;28;20027;-82
2023/12/30 07:46:55;;;;;;;89.35;59.13;;;9.20;99.90;;;;;;4999907;28;20026;-82
2023/12/30 07:49:21;;;;;;;90.57;60.08;;;9.30;99.90;;;;;;4982374;28;20030;-82
2023/12/30 07:51:48;;;;;;;101.50;62.03;;;9.40;99.90;;;;;;4998627;28;20494;-82
2023/12/30 07:54:15;;;;;;;91.43;58.55;;;9.40;99.90;;;;;;4998245;28;20082;-82
2023/12/30 07:56:44;;;;;;;83.75;56.75;;;9.40;99.90;;;;;;4998091;28;20034;-81
2023/12/30 07:59:12;;;;;;;86.75;53.85;;;9.50;99.90;;;;;;4995832;28;20026;-83
2023/12/30 08:01:43;;;;;;;73.80;51.67;;;9.50;99.90;;;;;;4996360;28;20126;-82
2023/12/30 08:04:10;;;;;;;80.55;51.80;;;9.50;99.90;;;;;;4993144;28;20049;-81
2023/12/30 08:06:38;;;;;;;80.75;55.00;;;9.50;99.90;;;;;;4977877;28;20030;-82
2023/12/30 08:09:04;;;;;;;78.35;55.22;;;9.50;99.90;;;;;;4977050;28;20048;-82
2023/12/30 08:11:31;;;;;;;90.55;54.03;;;9.50;99.90;;;;;;4977308;28;20049;-81
2023/12/30 08:13:57;;;;;;;81.80;55.65;;;9.40;99.90;;;;;;4979155;28;20505;-84
2023/12/30 08:16:23;;;;;;;89.32;56.30;;;9.40;99.90;;;;;;4979336;28;20031;-83
2023/12/30 08:18:50;;;;;;;84.93;55.58;;;9.40;99.90;;;;;;4999686;28;20027;-81
2023/12/30 08:21:16;;;;;;;99.60;62.67;;;9.50;99.90;;;;;;4977152;28;20051;-82
2023/12/30 08:23:44;;;;;;;98.72;62.35;;;9.50;99.90;;;;;;4995464;28;20077;-84
2023/12/30 08:26:11;;;;;;;87.13;60.70;;;9.60;99.90;;;;;;4979529;28;20047;-84
2023/12/30 08:28:37;;;;;;;88.43;56.42;;;9.70;99.90;;;;;;4984205;28;20034;-83
2023/12/30 08:31:04;;;;;;;85.05;56.92;;;9.80;99.90;;;;;;4977448;28;20109;-88
2023/12/30 08:33:33;;;;;;;92.25;56.63;;;9.80;99.90;;;;;;4980548;28;20027;-80
2023/12/30 08:36:00;;;;;;;96.05;58.85;;;9.80;99.90;;;;;;4992431;28;20053;-86
2023/12/30 08:38:31;;;;;;;91.85;58.80;;;9.90;99.90;;;;;;4995734;28;20030;-88
2023/12/30 08:40:59;;;;;;;89.30;59.78;;;10.00;99.90;;;;;;5010601;28;20062;-85
2023/12/30 08:43:25;;;;;;;99.28;61.25;;;10.10;99.90;;;;;;4979661;28;20495;-85
2023/12/30 08:45:51;;;;;;;92.95;61.42;;;10.20;99.90;;;;;;4976153;28;20542;-85
2023/12/30 08:48:18;;;;;;;78.75;56.10;;;10.40;99.90;;;;;;4959935;28;20511;-87
2023/12/30 08:50:48;;;;;;;80.20;53.42;;;10.50;99.90;;;;;;4960183;28;20033;-86
2023/12/30 08:53:18;;;;;;;84.88;54.53;;;10.50;99.90;;;;;;4960066;28;20489;-87
2023/12/30 08:55:45;;;;;;;82.82;51.50;;;10.60;99.90;;;;;;4963992;28;20039;-87
2023/12/30 08:58:12;;;;;;;74.47;48.67;;;10.70;99.90;;;;;;4991976;28;20051;-84
2023/12/30 09:00:41;;;;;;;84.97;52.42;;;10.80;99.90;;;;;;4991911;28;20496;-85
2023/12/30 09:03:08;;;;;;;72.22;50.00;;;10.90;99.90;;;;;;4976063;28;20092;-85
2023/12/30 09:05:35;;;;;;;76.45;49.58;;;11.10;99.90;;;;;;4992236;28;20027;-85
2023/12/30 09:08:03;;;;;;;75.97;48.47;;;11.20;99.90;;;;;;4975777;28;20118;-87
2023/12/30 09:10:34;;;;;;;80.72;49.15;;;11.30;99.90;;;;;;4975924;28;20027;-88
2023/12/30 09:13:08;;;;;;;79.20;50.13;;;11.40;99.90;;;;;;4984345;28;20079;-87
2023/12/30 09:15:38;;;;;;;80.47;50.20;;;11.50;99.90;;;;;;4975558;28;20266;-88
2023/12/30 09:18:09;;;;;;;74.40;52.28;;;11.60;99.90;;;;;;4975559;28;20038;-88
2023/12/30 09:20:43;;;;;;;82.43;52.60;;;11.60;99.90;;;;;;4961287;28;20038;-85
2023/12/30 09:23:29;;;;;;;77.47;50.75;;;11.80;99.90;;;;;;4959596;28;20050;-90
2023/12/30 09:25:56;;;;;;;74.72;49.15;;;12.00;99.90;;;;;;4964757;28;20037;-88
2023/12/30 09:28:25;;;;;;;66.35;47.10;;;12.20;99.90;;;;;;4959765;28;20515;-85
2023/12/30 09:30:53;;;;;;;69.45;48.03;;;12.40;99.90;;;;;;4959157;28;20034;-85
2023/12/30 09:33:20;;;;;;;66.18;45.50;;;12.70;99.90;;;;;;5008238;23;20100;-88
2023/12/30 09:35:54;;;;;;;61.25;43.00;;;13.00;99.90;;;;;;4998968;28;20038;-89
2023/12/30 09:38:25;;;;;;;68.75;44.50;;;13.20;99.90;;;;;;4978537;28;20431;-89
2023/12/30 09:40:57;;;;;;;94.75;53.70;;;13.40;99.90;;;;;;4978552;28;20102;-88
2023/12/30 09:43:27;;;;;;;51.47;38.33;;;13.70;99.90;;;;;;4962552;28;20038;-91
2023/12/30 09:45:55;;;;;;;51.83;38.80;;;14.00;99.90;;;;;;4962563;28;20041;-86
2023/12/30 09:48:26;;;;;;;45.72;36.50;;;14.10;99.90;;;;;;4976891;28;20039;-91
2023/12/30 09:50:57;;;;;;;45.85;36.75;;;14.00;99.90;;;;;;4977588;28;20550;-90
2023/12/30 09:53:25;;;;;;;44.05;35.55;;;14.10;99.90;;;;;;4977755;28;20088;-93
2023/12/30 09:55:52;;;;;;;44.20;35.78;;;14.20;99.90;;;;;;4977349;28;20037;-90
2023/12/30 09:58:21;;;;;;;44.92;36.13;;;14.30;99.90;;;;;;4977330;28;20026;-90
2023/12/30 10:00:52;;;;;;;43.60;37.50;;;14.60;99.90;;;;;;4977523;28;20433;-91
2023/12/30 10:03:18;;;;;;;53.47;35.72;;;14.50;99.90;;;;;;4963999;28;20125;-91
2023/12/30 10:05:45;;;;;;;46.25;33.67;;;14.40;99.90;;;;;;4958173;28;20093;-91
2023/12/30 10:08:11;;;;;;;42.65;34.60;;;14.40;99.90;;;;;;4958030;28;20038;-91
2023/12/30 10:10:46;;;;;;;41.50;34.75;;;14.20;99.90;;;;;;4962807;28;20101;-91
2023/12/30 10:13:13;;;;;;;37.80;32.50;;;14.10;99.90;;;;;;4977420;28;20038;-91
2023/12/30 10:15:42;;;;;;;40.60;34.50;;;14.00;99.90;;;;;;4958668;28;20023;-90
2023/12/30 10:18:09;;;;;;;42.17;33.83;;;14.00;99.90;;;;;;4957898;28;20077;-91
2023/12/30 10:20:42;;;;;;;39.95;33.75;;;14.00;99.90;;;;;;4957559;28;20043;-90
2023/12/30 10:23:09;;;;;;;36.90;32.83;;;14.00;99.90;;;;;;4957977;28;20062;-89
2023/12/30 10:25:37;;;;;;;35.13;31.42;;;14.00;99.90;;;;;;4970480;28;20066;-91
2023/12/30 10:28:05;;;;;;;37.15;32.42;;;14.20;99.90;;;;;;4979308;28;20450;-88
2023/12/30 10:30:32;;;;;;;40.70;32.38;;;14.50;99.90;;;;;;4982428;28;20029;-88
2023/12/30 10:33:17;;;;;;;40.90;30.33;;;14.70;99.90;;;;;;4983080;28;20035;-92
2023/12/30 10:35:44;;;;;;;35.45;29.98;;;14.90;99.90;;;;;;4958606;29;20094;-89
2023/12/30 10:38:13;;;;;;;32.42;29.23;;;14.90;99.90;;;;;;4940494;29;20049;-89
2023/12/30 10:40:45;;;;;;;33.80;29.92;;;14.70;99.90;;;;;;4956227;29;20502;-88
2023/12/30 10:43:13;;;;;;;29.30;26.48;;;14.70;99.90;;;;;;4959477;29;20046;-90
2023/12/30 10:45:40;;;;;;;28.98;26.08;;;14.70;99.90;;;;;;4943702;29;20051;-89
2023/12/30 10:48:08;;;;;;;29.00;26.30;;;14.90;99.90;;;;;;4930991;29;20035;-92
2023/12/30 10:50:38;;;;;;;33.38;29.67;;;15.10;99.90;;;;;;4941769;29;20027;-90
2023/12/30 10:53:26;;;;;;;34.67;30.95;;;15.10;99.90;;;;;;4944253;29;20031;-89
2023/12/30 10:56:00;;;;;;;36.08;32.28;;;15.10;99.90;;;;;;4967629;29;20031;-90
2023/12/30 10:58:33;;;;;;;44.40;36.58;;;15.40;99.90;;;;;;4939552;29;20067;-89
2023/12/30 11:01:07;;;;;;;35.03;31.33;;;15.30;99.90;;;;;;4968563;29;20102;-89
2023/12/30 11:03:35;;;;;;;33.42;29.90;;;15.20;99.90;;;;;;4968768;29;20059;-90
2023/12/30 11:06:22;;;;;;;32.25;29.15;;;15.10;99.90;;;;;;4967712;28;20020;-90
2023/12/30 11:09:11;;;;;;;30.08;27.17;;;15.10;99.90;;;;;;4967011;28;20028;-89
2023/12/30 11:11:51;;;;;;;28.38;25.55;;;15.10;99.90;;;;;;4965949;29;20032;-90
2023/12/30 11:14:25;;;;;;;32.08;29.20;;;15.00;99.90;;;;;;4966571;29;20034;-89
2023/12/30 11:16:55;;;;;;;25.52;23.40;;;15.00;99.90;;;;;;4959560;28;20163;-91
2023/12/30 11:19:27;;;;;;;26.73;24.40;;;14.90;99.90;;;;;;4968272;28;20035;-89
2023/12/30 11:21:56;;;;;;;26.10;23.73;;;15.00;99.90;;;;;;4982195;28;20031;-90
2023/12/30 11:24:29;;;;;;;26.65;24.55;;;15.00;99.90;;;;;;4969536;28;20038;-90
2023/12/30 11:26:58;;;;;;;26.00;23.67;;;15.00;99.90;;;;;;4985825;28;20039;-89
2023/12/30 11:29:26;;;;;;;26.45;24.02;;;15.20;99.90;;;;;;4969245;28;20086;-90
2023/12/30 11:31:55;;;;;;;27.50;24.98;;;15.10;99.90;;;;;;4983593;28;20031;-89
2023/12/30 11:34:24;;;;;;;26.10;24.13;;;15.10;99.90;;;;;;4981371;28;20151;-88
2023/12/30 11:36:53;;;;;;;25.77;23.77;;;15.20;99.90;;;;;;4982598;28;20031;-90
2023/12/30 11:39:28;;;;;;;26.92;24.75;;;15.30;99.90;;;;;;4977705;28;20043;-89
2023/12/30 11:41:57;;;;;;;26.80;24.65;;;15.20;99.90;;;;;;4974301;28;20035;-91
2023/12/30 11:44:28;;;;;;;29.05;26.25;;;15.10;99.90;;;;;;4975787;28;20027;-90
2023/12/30 11:46:56;;;;;;;28.48;25.98;;;15.20;99.90;;;;;;4970428;29;20039;-90
2023/12/30 11:49:26;;;;;;;27.77;25.38;;;15.20;99.90;;;;;;4952473;29;20488;-88
2023/12/30 11:52:09;;;;;;;26.65;24.52;;;15.10;99.90;;;;;;4955823;29;20043;-91
2023/12/30 11:54:38;;;;;;;25.20;23.27;;;15.00;99.90;;;;;;4951977;29;20035;-90
2023/12/30 11:57:09;;;;;;;25.45;23.35;;;14.80;99.90;;;;;;4939681;29;20103;-90
2023/12/30 11:59:38;;;;;;;25.50;23.35;;;14.60;99.90;;;;;;4972442;29;20062;-92
2023/12/30 12:02:08;;;;;;;25.80;23.58;;;14.60;99.90;;;;;;4953951;29;20054;-89
2023/12/30 12:04:35;;;;;;;25.05;23.08;;;14.60;99.90;;;;;;4967034;29;20043;-90
2023/12/30 12:07:02;;;;;;;24.80;22.92;;;14.70;99.90;;;;;;4955259;29;20027;-91
2023/12/30 12:09:29;;;;;;;24.60;22.90;;;14.70;99.90;;;;;;4960752;29;20079;-91
2023/12/30 12:11:56;;;;;;;26.15;24.02;;;14.80;99.90;;;;;;4925144;29;20047;-88
2023/12/30 12:14:25;;;;;;;25.70;23.67;;;14.80;99.90;;;;;;4925175;29;20078;-89
2023/12/30 12:16:54;;;;;;;25.70;23.90;;;14.90;99.90;;;;;;4917969;29;20039;-88
2023/12/30 12:19:26;;;;;;;25.85;23.83;;;15.10;99.90;;;;;;4926635;29;20097;-91
2023/12/30 12:22:00;;;;;;;26.33;24.42;;;15.20;99.90;;;;;;4922201;29;20519;-92
2023/12/30 12:24:26;;;;;;;;;;;15.40;99.90;;;;;;4921669;29;20051;-90
2023/12/30 12:26:53;;;;;;;28.00;25.80;;;15.40;99.90;;;;;;4934124;29;19938;-83
2023/12/30 12:29:20;;;;;;;28.13;26.10;;;15.50;99.90;;;;;;4919798;29;20036;-83
2023/12/30 12:31:47;;;;;;;26.70;24.75;;;15.40;99.90;;;;;;4936540;29;20027;-85
2023/12/30 12:34:24;;;;;;;28.50;26.20;;;15.40;99.90;;;;;;4961193;28;20135;-86